createdAt,value
2023-02-03T00:00:01.440Z,99.90
2023-02-03T00:02:28.736Z,99.90
2023-02-03T00:07:26.131Z,99.90
2023-02-03T00:09:53.433Z,99.90
2023-02-03T00:14:51.221Z,99.90
2023-02-03T00:19:46.171Z,99.90
2023-02-03T00:37:02.962Z,99.90
2023-02-03T00:42:03.804Z,99.90
2023-02-03T00:49:26.884Z,99.90
2023-02-03T00:51:54.399Z,99.90
2023-02-03T00:59:19.484Z,99.90
2023-02-03T01:04:17.045Z,99.90
2023-02-03T01:14:07.386Z,99.90
2023-02-03T01:16:38.225Z,99.90
2023-02-03T01:24:01.212Z,99.90
2023-02-03T01:26:28.743Z,99.90
2023-02-03T01:28:58.608Z,99.90
2023-02-03T01:31:46.252Z,99.90
2023-02-03T01:34:18.602Z,99.90
2023-02-03T01:36:46.980Z,99.90
2023-02-03T01:41:42.655Z,99.90
2023-02-03T01:44:37.898Z,99.90
2023-02-03T01:47:18.024Z,99.90
2023-02-03T01:49:55.972Z,99.90
2023-02-03T01:52:23.466Z,99.90
2023-02-03T01:54:54.224Z,99.90
2023-02-03T01:57:27.147Z,99.90
2023-02-03T01:59:58.223Z,99.90
2023-02-03T02:05:12.397Z,99.90
2023-02-03T02:12:38.081Z,99.90
2023-02-03T02:20:49.112Z,99.90
2023-02-03T02:24:00.028Z,99.90
2023-02-03T02:29:20.170Z,99.90
2023-02-03T02:32:41.747Z,99.90
2023-02-03T02:35:29.166Z,99.90
2023-02-03T02:41:04.609Z,99.90
2023-02-03T02:46:11.243Z,99.90
2023-02-03T02:49:00.809Z,99.90
2023-02-03T02:54:04.118Z,99.90
2023-02-03T02:56:34.398Z,99.90
2023-02-03T02:59:05.202Z,99.90
2023-02-03T03:04:04.807Z,99.90
2023-02-03T03:09:36.292Z,99.90
2023-02-03T03:12:17.362Z,99.90
2023-02-03T03:14:55.802Z,99.90
2023-02-03T03:17:28.190Z,99.90
2023-02-03T03:19:57.987Z,99.90
2023-02-03T03:22:33.872Z,99.90
2023-02-03T03:25:07.025Z,99.90
2023-02-03T03:30:22.675Z,99.90
2023-02-03T03:32:50.989Z,99.90
2023-02-03T03:37:57.671Z,99.90
2023-02-03T03:40:34.157Z,99.90
2023-02-03T03:43:10.804Z,99.90
2023-02-03T03:45:55.280Z,99.90
2023-02-03T03:48:35.210Z,99.90
2023-02-03T03:51:10.005Z,99.90
2023-02-03T03:53:39.865Z,99.90
2023-02-03T03:58:38.800Z,99.90
2023-02-03T04:01:09.634Z,99.90
2023-02-03T04:03:54.032Z,99.90
2023-02-03T04:11:36.689Z,99.90
2023-02-03T04:21:27.155Z,99.90
2023-02-03T04:28:52.274Z,99.90
2023-02-03T04:31:20.700Z,99.90
2023-02-03T04:33:48.635Z,99.90
2023-02-03T04:38:44.117Z,99.90
2023-02-03T04:43:41.858Z,99.90
2023-02-03T04:48:38.005Z,99.90
2023-02-03T04:51:07.657Z,99.90
2023-02-03T04:58:32.860Z,99.90
2023-02-03T05:01:09.288Z,99.90
2023-02-03T05:03:36.557Z,99.90
2023-02-03T05:08:31.778Z,99.90
2023-02-03T05:30:44.422Z,99.90
2023-02-03T05:40:55.545Z,99.90
2023-02-03T05:50:48.385Z,99.90
2023-02-03T05:53:15.625Z,99.90
2023-02-03T06:03:05.740Z,99.90
2023-02-03T06:05:34.479Z,99.90
2023-02-03T06:08:04.371Z,99.90
2023-02-03T06:10:31.590Z,99.90
2023-02-03T06:17:57.366Z,99.90
2023-02-03T06:22:55.057Z,99.90
2023-02-03T06:27:52.017Z,99.90
2023-02-03T06:30:20.792Z,99.90
2023-02-03T06:32:49.109Z,99.90
2023-02-03T06:35:16.893Z,99.90
2023-02-03T06:37:44.349Z,99.90
2023-02-03T07:14:46.027Z,99.90
2023-02-03T07:19:45.979Z,99.90
2023-02-03T08:26:32.840Z,99.90
2023-02-03T08:29:04.198Z,99.90
2023-02-03T08:48:49.585Z,99.90
2023-02-03T08:51:17.784Z,99.90
2023-02-03T08:58:43.251Z,99.90
2023-02-03T09:01:13.393Z,99.90
2023-02-03T09:03:41.129Z,99.90
2023-02-03T09:21:02.567Z,99.90
2023-02-03T09:38:45.327Z,99.90
2023-02-03T09:41:31.341Z,99.90
2023-02-03T09:44:12.883Z,99.90
2023-02-03T09:46:44.658Z,99.90
2023-02-03T09:49:37.701Z,99.90
2023-02-03T09:52:20.127Z,99.60
2023-02-03T09:55:06.135Z,98.20
2023-02-03T09:57:43.270Z,95.50
2023-02-03T10:00:28.441Z,93.10
2023-02-03T10:03:21.703Z,91.70
2023-02-03T10:06:10.134Z,91.90
2023-02-03T10:08:43.586Z,86.10
2023-02-03T10:11:29.754Z,82.40
2023-02-03T10:14:24.538Z,81.60
2023-02-03T10:22:11.406Z,78.50
2023-02-03T10:25:04.844Z,77.40
2023-02-03T10:27:37.419Z,78.80
2023-02-03T10:30:10.105Z,80.10
2023-02-03T10:35:21.213Z,78.50
2023-02-03T10:37:55.547Z,77.30
2023-02-03T10:48:14.341Z,70.00
2023-02-03T10:50:48.584Z,68.30
2023-02-03T10:53:27.232Z,68.10
2023-02-03T10:58:46.347Z,65.40
2023-02-03T11:01:16.148Z,65.50
2023-02-03T11:04:04.080Z,65.90
2023-02-03T11:06:33.289Z,67.50
2023-02-03T11:14:05.697Z,70.90
2023-02-03T11:16:39.618Z,72.60
2023-02-03T11:19:17.713Z,74.40
2023-02-03T11:21:51.644Z,75.30
2023-02-03T11:24:22.527Z,76.20
2023-02-03T11:26:57.595Z,77.30
2023-02-03T11:29:31.779Z,75.80
2023-02-03T11:32:03.637Z,73.00
2023-02-03T11:34:38.213Z,70.70
2023-02-03T11:40:12.751Z,63.40
2023-02-03T11:42:47.472Z,61.10
2023-02-03T11:45:18.852Z,63.80
2023-02-03T11:47:53.765Z,63.60
2023-02-03T11:50:34.343Z,63.80
2023-02-03T11:53:47.801Z,63.70
2023-02-03T11:56:44.612Z,61.60
2023-02-03T12:02:20.611Z,54.50
2023-02-03T12:05:18.544Z,49.60
2023-02-03T12:08:05.074Z,46.60
2023-02-03T12:10:59.597Z,34.20
2023-02-03T12:14:07.629Z,20.80
2023-02-03T12:17:11.892Z,18.60
2023-02-03T12:19:45.762Z,20.50
2023-02-03T12:22:45.130Z,16.80
2023-02-03T12:25:37.445Z,15.80
2023-02-03T12:33:44.378Z,16.20
2023-02-03T12:36:22.860Z,17.70
2023-02-03T12:38:56.320Z,18.50
2023-02-03T12:41:34.413Z,21.60
2023-02-03T12:44:45.102Z,20.10
2023-02-03T12:47:50.832Z,20.20
2023-02-03T12:50:46.437Z,21.50
2023-02-03T12:53:17.800Z,22.60
2023-02-03T12:56:09.829Z,23.30
2023-02-03T13:01:28.921Z,23.10
2023-02-03T13:04:21.577Z,23.40
2023-02-03T13:09:37.306Z,25.00
2023-02-03T13:12:08.825Z,25.70
2023-02-03T13:14:49.118Z,27.10
2023-02-03T13:19:55.766Z,29.40
2023-02-03T13:22:24.200Z,29.50
2023-02-03T13:24:56.583Z,30.80
2023-02-03T13:27:36.013Z,31.50
2023-02-03T13:30:13.439Z,31.60
2023-02-03T13:32:49.360Z,33.80
2023-02-03T13:35:53.328Z,34.50
2023-02-03T13:38:49.515Z,35.30
2023-02-03T13:41:44.832Z,35.60
2023-02-03T13:44:15.665Z,36.60
2023-02-03T13:46:43.381Z,37.00
2023-02-03T13:49:17.848Z,39.30
2023-02-03T13:51:46.826Z,40.50
2023-02-03T13:54:27.995Z,41.80
2023-02-03T13:57:04.750Z,40.40
2023-02-03T13:59:42.636Z,40.30
2023-02-03T14:04:55.866Z,41.70
2023-02-03T14:07:33.746Z,42.30
2023-02-03T14:10:16.070Z,45.60
2023-02-03T14:12:52.661Z,46.40
2023-02-03T14:15:26.831Z,48.80
2023-02-03T14:20:29.680Z,50.90
2023-02-03T14:23:21.028Z,51.90
2023-02-03T14:28:45.472Z,56.90
2023-02-03T14:31:23.128Z,57.00
2023-02-03T14:34:13.078Z,59.00
2023-02-03T14:36:43.816Z,60.60
2023-02-03T14:42:09.786Z,62.30
2023-02-03T14:44:42.914Z,64.40
2023-02-03T14:52:33.669Z,68.30
2023-02-03T15:07:52.477Z,83.90
2023-02-03T15:10:24.693Z,85.80
2023-02-03T15:12:57.099Z,87.40
2023-02-03T15:15:24.639Z,89.40
2023-02-03T15:17:55.521Z,90.00
2023-02-03T15:20:25.602Z,91.40
2023-02-03T15:22:55.871Z,91.90
2023-02-03T15:25:30.370Z,93.10
2023-02-03T15:28:21.506Z,94.10
2023-02-03T15:31:01.477Z,94.50
2023-02-03T15:33:32.405Z,94.90
2023-02-03T15:36:07.437Z,94.80
2023-02-03T15:38:47.890Z,95.60
2023-02-03T15:43:57.858Z,96.80
2023-02-03T15:46:38.504Z,97.30
2023-02-03T15:49:12.899Z,98.60
2023-02-03T15:52:15.374Z,99.50
2023-02-03T15:54:46.486Z,99.60
2023-02-03T15:57:30.188Z,99.50
2023-02-03T16:00:40.766Z,98.90
2023-02-03T16:03:40.111Z,99.40
2023-02-03T16:06:30.738Z,99.90
2023-02-03T16:08:59.809Z,99.90
2023-02-03T16:11:38.481Z,99.90
2023-02-03T16:14:08.105Z,99.90
2023-02-03T16:17:04.756Z,99.90
2023-02-03T16:19:38.260Z,99.90
2023-02-03T16:22:33.191Z,99.90
2023-02-03T16:25:27.742Z,99.90
2023-02-03T16:28:35.584Z,99.90
2023-02-03T16:31:33.775Z,99.90
2023-02-03T16:34:32.041Z,99.90
2023-02-03T16:37:18.164Z,99.90
2023-02-03T16:40:04.098Z,99.90
2023-02-03T16:42:58.518Z,99.90
2023-02-03T16:45:44.572Z,99.90
2023-02-03T16:48:31.169Z,99.90
2023-02-03T16:51:05.556Z,99.90
2023-02-03T16:53:33.851Z,99.90
2023-02-03T16:56:04.448Z,99.90
2023-02-03T17:01:04.779Z,99.90
2023-02-03T17:03:34.656Z,99.90
2023-02-03T17:06:07.905Z,99.90
2023-02-03T17:08:35.328Z,99.90
2023-02-03T17:11:08.139Z,99.90
2023-02-03T17:13:36.921Z,99.90
2023-02-03T17:16:19.082Z,99.90
2023-02-03T17:21:17.685Z,99.90
2023-02-03T17:26:12.886Z,99.90
2023-02-03T17:28:43.001Z,99.90
2023-02-03T17:31:20.042Z,99.90
2023-02-03T17:33:51.715Z,99.90
2023-02-03T17:36:21.998Z,99.90
2023-02-03T17:55:33.267Z,99.90
2023-02-03T17:58:01.055Z,99.90
2023-02-03T18:00:28.394Z,99.90
2023-02-03T18:02:57.552Z,99.90
2023-02-03T18:05:29.018Z,99.90
2023-02-03T18:12:51.932Z,99.90
2023-02-03T18:15:19.442Z,99.90
2023-02-03T18:17:51.127Z,99.90
2023-02-03T18:20:18.848Z,99.90
2023-02-03T18:22:46.368Z,99.90
2023-02-03T18:27:45.019Z,99.90
2023-02-03T18:30:15.163Z,99.90
2023-02-03T18:32:42.557Z,99.90
2023-02-03T18:40:12.637Z,99.90
2023-02-03T18:45:08.140Z,99.90
2023-02-03T18:47:38.012Z,99.90
2023-02-03T18:50:05.741Z,99.90
2023-02-03T18:55:01.155Z,99.90
2023-02-03T18:57:28.682Z,99.90
2023-02-03T18:59:56.120Z,99.90
2023-02-03T19:02:25.860Z,99.90
2023-02-03T19:04:53.594Z,99.90
2023-02-03T19:07:20.886Z,99.90
2023-02-03T19:09:48.659Z,99.90
2023-02-03T19:12:16.044Z,99.90
2023-02-03T19:17:11.189Z,99.90
2023-02-03T19:19:38.805Z,99.90
2023-02-03T19:22:06.072Z,99.90
2023-02-03T19:27:01.627Z,99.90
2023-02-03T19:29:28.912Z,99.90
2023-02-03T19:31:57.236Z,99.90
2023-02-03T19:36:54.899Z,99.90
2023-02-03T19:39:21.984Z,99.90
2023-02-03T19:41:52.003Z,99.90
2023-02-03T19:44:19.445Z,99.90
2023-02-03T19:49:15.343Z,99.90
2023-02-03T19:54:16.994Z,99.90
2023-02-03T19:56:45.255Z,99.90
2023-02-03T20:01:40.114Z,99.90
2023-02-03T20:04:10.159Z,99.90
2023-02-03T20:06:37.759Z,99.90
2023-02-03T20:09:06.736Z,99.90
2023-02-03T20:11:36.627Z,99.90
2023-02-03T20:14:04.332Z,99.90
2023-02-03T20:16:34.110Z,99.90
2023-02-03T20:19:01.593Z,99.90
2023-02-03T20:21:31.609Z,99.90
2023-02-03T20:23:59.823Z,99.90
2023-02-03T20:26:27.192Z,99.90
2023-02-03T20:28:57.070Z,99.90
2023-02-03T20:31:24.733Z,99.90
2023-02-03T20:33:53.356Z,99.90
2023-02-03T20:36:20.685Z,99.90
2023-02-03T20:38:48.824Z,99.90
2023-02-03T20:41:19.601Z,99.90
2023-02-03T20:46:17.244Z,99.90
2023-02-03T20:48:44.540Z,99.90
2023-02-03T20:51:15.588Z,99.90
2023-02-03T20:53:44.430Z,99.90
2023-02-03T20:56:18.311Z,99.90
2023-02-03T20:58:46.346Z,99.90
2023-02-03T21:01:20.800Z,99.90
2023-02-03T21:04:07.277Z,99.90
2023-02-03T21:06:37.550Z,99.90
2023-02-03T21:09:18.543Z,99.90
2023-02-03T21:11:46.015Z,99.90
2023-02-03T21:14:33.186Z,99.90
2023-02-03T21:17:00.712Z,99.90
2023-02-03T21:19:32.568Z,99.90
2023-02-03T21:22:07.538Z,99.90
2023-02-03T21:24:37.903Z,99.90
2023-02-03T21:27:29.312Z,99.90
2023-02-03T21:29:58.186Z,99.90
2023-02-03T21:32:32.991Z,99.90
2023-02-03T21:35:01.013Z,99.90
2023-02-03T21:37:40.216Z,99.90
2023-02-03T21:40:29.213Z,99.90
2023-02-03T21:42:57.632Z,99.90
2023-02-03T21:48:19.461Z,99.90
2023-02-03T21:50:49.415Z,99.90
2023-02-03T21:53:22.461Z,99.90
2023-02-03T21:55:52.661Z,99.90
2023-02-03T21:58:25.087Z,99.90
2023-02-03T22:00:57.867Z,99.90
2023-02-03T22:03:40.828Z,99.90
2023-02-03T22:06:40.296Z,99.90
2023-02-03T22:09:15.241Z,99.90
2023-02-03T22:11:44.820Z,99.90
2023-02-03T22:14:16.525Z,99.90
2023-02-03T22:16:44.640Z,99.90
2023-02-03T22:19:12.138Z,99.90
2023-02-03T22:21:39.628Z,99.90
2023-02-03T22:24:09.538Z,99.90
2023-02-03T22:26:37.335Z,99.90
2023-02-03T22:29:07.204Z,99.90
2023-02-03T22:31:35.581Z,99.90
2023-02-03T22:36:33.770Z,99.90
2023-02-03T22:39:01.223Z,99.90
2023-02-03T22:43:59.302Z,99.90
2023-02-03T22:48:54.493Z,99.90
2023-02-03T22:51:21.779Z,99.90
2023-02-03T22:53:49.203Z,99.90
2023-02-03T22:56:16.714Z,99.90
2023-02-03T22:58:46.642Z,99.90
2023-02-03T23:03:42.752Z,99.90
2023-02-03T23:08:40.274Z,99.90
2023-02-03T23:13:35.314Z,99.90
2023-02-03T23:16:02.881Z,99.90
2023-02-03T23:20:57.818Z,99.90
2023-02-03T23:23:25.462Z,99.90
2023-02-03T23:25:52.768Z,99.90
2023-02-03T23:28:20.540Z,99.90
2023-02-03T23:30:48.455Z,99.90
2023-02-03T23:33:16.220Z,99.90
2023-02-03T23:35:45.907Z,99.90
2023-02-03T23:38:17.098Z,99.90
2023-02-03T23:40:47.981Z,99.90
2023-02-03T23:45:43.738Z,99.90
2023-02-03T23:53:10.109Z,99.90
2023-02-03T23:55:37.542Z,99.90
2023-02-03T23:58:07.146Z,99.90
